Selected Aviation Weather Reports

Never base important decisions on this or any weather information obtained from a non-NWS site!

Last update: Dec 13, 2017, 10:22 pm CDT

 

There are no active watches, warnings or advisories for the Mid-South area.

METAR for KATL, KDFW, KEWR, KLAX, KMEM & KORD

METAR is also known as Meteorological Terminal Aviation Routine Weather Report or Met eorological Aerodrome Report.

Final Testing in progress.

(09/9/17 - 4:31 pm)

My sincere thanks for your help!


2017/12/14 03:52 KATL 140352Z 25011KT 10SM FEW250 07/M06 A2986 RMK AO2 SLP116 T00671061

KATL, Dec 14, 2017, 03:52Z
Hartsfield-Jackson Atlanta International Airport
Wind: 250° @ 11 kts
Visibility: 10 Statute miles
Clouds: Few @ 25,000 ft
Altimeter: 29.86 in/Hg
Sea Level Pressure: 1011.6 mb
Temperature: 44.06°F (6.7°C)
Dew Point: 21.02°F (-6.1°C)

2017/12/14 03:53 KDFW 140353Z 22006KT 10SM CLR 12/M02 A2988 RMK AO2 SLP117 T01171022

KDFW, Dec 14, 2017, 03:53Z
Dallas-Ft. Worth International Airport
Wind: 220° @ 6 kts
Visibility: 10 Statute miles
Clouds: Skies Clear
Altimeter: 29.88 in/Hg
Sea Level Pressure: 1011.7 mb
Temperature: 53.06°F (11.7°C)
Dew Point: 28.04°F (-2.2°C)

2017/12/14 03:51 KEWR 140351Z 24008KT 10SM BKN060 OVC100 M02/M14 A2967 RMK AO2 SLP048 VIRGA T10221144

KEWR, Dec 14, 2017, 03:51Z
Newark Liberty International Airport
Wind: 240° @ 8 kts
Visibility: 10 Statute miles
Clouds: Broken @ 6,000 ft
Overcast @ 10,000 ft
Altimeter: 29.67 in/Hg
Sea Level Pressure: 1004.8 mb
Temperature: 28.04°F (-2.2°C)
Dew Point: 6.08°F (-14.4°C)
Additional Remarks: 
VIRGA.

2017/12/14 03:53 KLAX 140353Z 00000KT 9SM FEW200 17/07 A2995 RMK AO2 SLP141 T01720067

KLAX, Dec 14, 2017, 03:53Z
Los Angeles International Airport
Wind: Calm
Visibility: 9 Statute miles
Clouds: Few @ 20,000 ft
Altimeter: 29.95 in/Hg
Sea Level Pressure: 1014.1 mb
Temperature: 62.96°F (17.2°C)
Dew Point: 44.06°F (6.7°C)

2017/12/14 03:54 KMEM 140354Z 24004KT 10SM CLR 09/M02 A2984 RMK AO2 SLP103 T00891022

KMEM, Dec 14, 2017, 03:54Z
Memphis International Airport
Wind: 240° @ 4 kts
Visibility: 10 Statute miles
Clouds: Skies Clear
Altimeter: 29.84 in/Hg
Sea Level Pressure: 1010.3 mb
Temperature: 48.02°F (8.9°C)
Dew Point: 28.04°F (-2.2°C)

2017/12/14 03:51 KORD 140351Z 35019G25KT 10SM OVC023 M02/M07 A2969 RMK AO2 PK WND 34026/0333 SNE0253 SLP060 P0000 T10171067 $

KORD, Dec 14, 2017, 03:51Z
Chicago O’Hare International Airport
Wind: 350° @ 19 kts, Gusts to 25 kts
Visibility: 10 Statute miles
Clouds: Overcast @ 2,300 ft
Altimeter: 29.69 in/Hg
Sea Level Pressure: 1006.0 mb
Temperature: 28.94°F (-1.7°C)
Dew Point: 19.94°F (-6.7°C)
Peak wind: 340° @ 26 kts, 03:33Z
Precipitation, previous hr: None
Additional Remarks: 
Snow ended @ 2:53z, last hr.
Maintenance Needed on the System.

Top of page